Time;durP1;ratioP1;P1;durP2;ratioP2;P2;SDS_P1;SDS_P2;PMS_P1;PMS_P2;Temp;Humidity;BMP_temperature;BMP_pressure;BME280_temperature;BME280_humidity;BME280_pressure;Samples;Min_cycle;Max_cycle;Signal;HPM_P1;HPM_P2
2023/12/13 00:00:37;;;;;;;31.70;19.85;;;6.20;97.10;;;;;;5073796;28;20096;-63
2023/12/13 00:03:05;;;;;;;31.08;18.58;;;6.20;97.00;;;;;;5073036;28;20407;-63
2023/12/13 00:05:33;;;;;;;26.20;17.35;;;6.20;97.10;;;;;;5055863;28;20715;-63
2023/12/13 00:08:00;;;;;;;26.35;17.00;;;6.20;97.00;;;;;;5068632;28;20388;-63
2023/12/13 00:10:27;;;;;;;24.80;16.40;;;6.20;97.00;;;;;;5065524;28;20025;-63
2023/12/13 00:12:54;;;;;;;23.42;17.13;;;6.20;97.10;;;;;;5055320;28;20119;-63
2023/12/13 00:15:21;;;;;;;25.67;16.75;;;6.20;97.00;;;;;;5072994;28;20035;-63
2023/12/13 00:17:49;;;;;;;27.80;16.08;;;6.20;97.10;;;;;;5072894;28;20056;-62
2023/12/13 00:20:17;;;;;;;23.77;16.00;;;6.30;97.10;;;;;;5073022;28;20029;-62
2023/12/13 00:22:48;;;;;;;28.58;17.17;;;6.20;97.10;;;;;;5059707;28;20036;-61
2023/12/13 00:25:15;;;;;;;23.15;16.58;;;6.20;97.10;;;;;;5072921;28;20048;-61
2023/12/13 00:27:44;;;;;;;23.90;16.88;;;6.30;97.10;;;;;;5072011;28;20067;-61
2023/12/13 00:30:13;;;;;;;25.55;17.33;;;6.30;97.10;;;;;;5073516;28;20052;-60
2023/12/13 00:32:41;;;;;;;26.10;16.60;;;6.20;97.10;;;;;;5072851;28;20393;-60
2023/12/13 00:35:10;;;;;;;21.60;16.05;;;6.30;97.10;;;;;;5073016;28;20418;-60
2023/12/13 00:37:37;;;;;;;27.02;16.67;;;6.30;97.10;;;;;;5072667;28;20033;-60
2023/12/13 00:40:05;;;;;;;27.52;16.73;;;6.30;97.10;;;;;;5072589;28;20063;-60
2023/12/13 00:42:32;;;;;;;25.85;16.70;;;6.30;97.10;;;;;;5073026;28;20438;-59
2023/12/13 00:44:59;;;;;;;25.38;16.70;;;6.30;97.10;;;;;;5055422;28;20071;-59
2023/12/13 00:47:27;;;;;;;25.45;17.33;;;6.30;97.10;;;;;;5072270;28;20094;-59
2023/12/13 00:49:55;;;;;;;28.08;17.77;;;6.30;97.10;;;;;;5072952;28;20085;-59
2023/12/13 00:52:21;;;;;;;27.00;17.90;;;6.30;97.10;;;;;;5072549;28;20499;-59
2023/12/13 00:54:49;;;;;;;28.67;19.13;;;6.30;97.20;;;;;;5055007;28;20017;-56
2023/12/13 00:57:18;;;;;;;29.33;18.52;;;6.40;97.10;;;;;;5072724;28;20025;-58
2023/12/13 00:59:45;;;;;;;26.05;17.65;;;6.40;97.10;;;;;;5071461;28;20028;-57
2023/12/13 01:02:15;;;;;;;27.88;18.35;;;6.30;97.10;;;;;;5072411;28;20059;-58
2023/12/13 01:04:44;;;;;;;27.58;17.90;;;6.30;97.10;;;;;;5072487;28;20108;-58
2023/12/13 01:10:32;;;;;;;26.80;17.92;;;6.30;97.10;;;;;;5071740;28;20039;-57
2023/12/13 01:12:57;;;;;;;26.90;18.35;;;6.30;97.10;;;;;;5071024;28;20025;-53
2023/12/13 01:15:24;;;;;;;24.33;16.77;;;6.30;97.10;;;;;;5053622;28;20029;-54
2023/12/13 01:17:51;;;;;;;25.27;17.20;;;6.30;97.10;;;;;;5071204;28;20024;-56
2023/12/13 01:20:19;;;;;;;26.33;16.88;;;6.30;97.10;;;;;;5071494;28;20041;-56
2023/12/13 01:22:47;;;;;;;28.50;17.27;;;6.30;97.20;;;;;;5072032;28;20028;-54
2023/12/13 01:25:14;;;;;;;30.73;19.73;;;6.30;97.10;;;;;;5112912;28;20031;-55
2023/12/13 01:27:43;;;;;;;28.00;18.38;;;6.30;97.10;;;;;;5074520;28;20094;-58
2023/12/13 01:30:10;;;;;;;24.77;16.92;;;6.30;97.10;;;;;;5072245;28;20658;-52
2023/12/13 01:32:41;;;;;;;24.95;18.25;;;6.30;97.10;;;;;;5063617;28;20135;-50
2023/12/13 01:35:08;;;;;;;23.77;16.23;;;6.30;97.10;;;;;;5072083;28;20028;-53
2023/12/13 01:37:35;;;;;;;28.02;18.70;;;6.30;97.10;;;;;;5072287;28;20048;-50
2023/12/13 01:40:03;;;;;;;25.48;17.42;;;6.30;97.10;;;;;;5075686;28;20469;-52
2023/12/13 01:42:29;;;;;;;34.67;18.90;;;6.30;97.10;;;;;;5076036;28;20056;-54
2023/12/13 01:44:56;;;;;;;28.63;17.10;;;6.30;97.10;;;;;;5075736;28;20121;-53
2023/12/13 01:47:22;;;;;;;26.45;17.50;;;6.30;97.10;;;;;;5075543;28;20078;-51
2023/12/13 01:49:49;;;;;;;32.88;19.15;;;6.30;97.10;;;;;;5057972;28;20035;-55
2023/12/13 01:52:17;;;;;;;24.10;16.83;;;6.30;97.10;;;;;;5058030;28;20024;-54
2023/12/13 01:54:45;;;;;;;25.17;17.63;;;6.30;97.10;;;;;;5075510;28;20040;-54
2023/12/13 01:57:13;;;;;;;26.35;18.10;;;6.30;97.10;;;;;;5075615;28;20029;-52
2023/12/13 01:59:41;;;;;;;25.17;17.38;;;6.30;97.10;;;;;;5058355;28;20035;-53
2023/12/13 02:02:09;;;;;;;26.98;17.27;;;6.30;97.10;;;;;;5057789;28;20024;-52
2023/12/13 02:04:40;;;;;;;24.98;17.08;;;6.30;97.10;;;;;;5057624;28;20090;-52
2023/12/13 02:07:07;;;;;;;27.33;16.58;;;6.30;97.10;;;;;;5057791;28;20080;-53
2023/12/13 02:09:33;;;;;;;29.75;19.35;;;6.30;97.10;;;;;;5075220;28;20032;-50
2023/12/13 02:11:59;;;;;;;26.20;17.77;;;6.30;97.20;;;;;;5075172;28;20073;-51
2023/12/13 02:14:26;;;;;;;28.52;17.65;;;6.30;97.10;;;;;;5083180;28;20028;-49
2023/12/13 02:17:02;;;;;;;26.13;18.80;;;6.30;97.10;;;;;;5093035;28;20058;-49
2023/12/13 02:19:29;;;;;;;26.27;19.60;;;6.30;97.10;;;;;;5082146;28;20036;-50
2023/12/13 02:21:54;;;;;;;31.38;20.98;;;6.30;97.10;;;;;;5090753;28;20098;-48
2023/12/13 02:24:24;;;;;;;30.77;20.40;;;6.30;97.00;;;;;;5086995;28;20028;-51
2023/12/13 02:26:51;;;;;;;33.50;19.65;;;6.30;97.10;;;;;;5057469;28;20025;-52
2023/12/13 02:29:17;;;;;;;27.70;19.17;;;6.30;97.10;;;;;;5066268;28;20040;-49
2023/12/13 02:31:44;;;;;;;24.17;18.98;;;6.30;97.10;;;;;;5059316;28;20035;-50
2023/12/13 02:34:12;;;;;;;29.58;18.88;;;6.30;97.10;;;;;;5072889;28;20033;-49
2023/12/13 02:36:43;;;;;;;29.30;19.63;;;6.30;97.10;;;;;;5075083;28;20107;-50
2023/12/13 02:39:10;;;;;;;30.27;19.88;;;6.30;97.10;;;;;;5057557;28;20410;-50
2023/12/13 02:41:38;;;;;;;29.00;19.90;;;6.30;97.10;;;;;;5074657;28;20161;-49
2023/12/13 02:44:05;;;;;;;32.85;19.75;;;6.30;97.00;;;;;;5074348;28;20024;-49
2023/12/13 02:46:32;;;;;;;37.88;21.83;;;6.30;97.00;;;;;;5074479;28;21983;-49
2023/12/13 02:49:02;;;;;;;30.50;20.23;;;6.30;97.10;;;;;;5077968;28;20008;-51
2023/12/13 02:51:30;;;;;;;30.60;19.85;;;6.30;97.10;;;;;;5093292;28;20028;-50
2023/12/13 02:53:58;;;;;;;28.67;18.70;;;6.20;97.00;;;;;;5076937;28;20035;-50
2023/12/13 02:56:25;;;;;;;32.53;19.13;;;6.30;97.10;;;;;;5094727;28;20024;-49
2023/12/13 02:58:54;;;;;;;28.63;19.08;;;6.30;97.10;;;;;;5092535;28;20016;-49
2023/12/13 03:01:22;;;;;;;37.43;21.57;;;6.30;97.10;;;;;;5056371;28;20025;-50
2023/12/13 03:03:49;;;;;;;29.00;18.67;;;6.30;97.00;;;;;;5074135;28;20278;-51
2023/12/13 03:06:20;;;;;;;30.92;21.02;;;6.20;97.10;;;;;;5074585;28;20070;-54
2023/12/13 03:08:50;;;;;;;27.42;18.80;;;6.20;97.00;;;;;;5074076;28;20112;-53
2023/12/13 03:11:21;;;;;;;31.50;19.08;;;6.20;97.00;;;;;;5074086;28;20032;-52
2023/12/13 03:13:50;;;;;;;29.77;19.75;;;6.20;97.00;;;;;;5074555;28;20433;-57
2023/12/13 03:16:18;;;;;;;28.60;19.63;;;6.20;97.00;;;;;;5074189;28;20385;-57
2023/12/13 03:18:48;;;;;;;33.42;20.10;;;6.20;97.00;;;;;;5074094;28;20086;-58
2023/12/13 03:21:17;;;;;;;;;;;6.20;97.00;;;;;;5074190;28;20032;-61
2023/12/13 03:23:43;;;;;;;38.90;20.48;;;6.20;97.10;;;;;;5075736;28;20318;-62
2023/12/13 03:26:12;;;;;;;27.67;19.15;;;6.20;97.10;;;;;;5094258;28;20035;-63
2023/12/13 03:28:38;;;;;;;27.38;18.63;;;6.20;97.00;;;;;;5094062;28;20028;-63
2023/12/13 03:31:10;;;;;;;31.75;18.00;;;6.20;97.10;;;;;;5074476;28;20100;-63
2023/12/13 03:33:37;;;;;;;26.52;19.27;;;6.10;97.00;;;;;;5073794;28;20036;-63
2023/12/13 03:36:03;;;;;;;28.98;19.52;;;6.10;97.00;;;;;;5073757;28;20404;-63
2023/12/13 03:38:32;;;;;;;29.17;17.90;;;6.10;97.00;;;;;;5073284;28;20020;-63
2023/12/13 03:40:59;;;;;;;27.60;18.05;;;6.10;97.00;;;;;;5073771;28;20345;-63
2023/12/13 03:43:28;;;;;;;24.77;18.08;;;6.10;97.10;;;;;;5073481;28;20338;-63
2023/12/13 03:45:55;;;;;;;26.95;17.52;;;6.00;97.00;;;;;;5073355;28;20036;-63
2023/12/13 03:48:22;;;;;;;24.15;16.92;;;6.00;97.00;;;;;;5072989;28;20119;-62
2023/12/13 03:50:49;;;;;;;24.75;16.23;;;6.00;97.00;;;;;;5055667;28;20024;-62
2023/12/13 03:53:17;;;;;;;21.83;15.45;;;6.00;97.00;;;;;;5073236;28;20033;-62
2023/12/13 03:55:44;;;;;;;21.90;15.82;;;6.00;97.10;;;;;;5073727;28;20035;-62
2023/12/13 03:58:10;;;;;;;27.63;15.32;;;6.10;97.10;;;;;;5072869;28;20090;-63
2023/12/13 04:00:35;;;;;;;23.85;14.80;;;6.10;97.10;;;;;;5072942;28;20040;-62
2023/12/13 04:03:02;;;;;;;22.52;15.35;;;6.00;97.00;;;;;;5055634;28;20056;-62
2023/12/13 04:05:28;;;;;;;23.65;14.27;;;6.00;97.00;;;;;;5055652;28;20052;-61
2023/12/13 04:07:56;;;;;;;21.00;14.23;;;6.00;97.00;;;;;;5073552;28;20446;-62
2023/12/13 04:10:23;;;;;;;20.08;13.88;;;6.00;97.00;;;;;;5072837;28;20756;-62
2023/12/13 04:12:50;;;;;;;20.20;13.15;;;6.00;97.00;;;;;;5072920;28;20111;-62
2023/12/13 04:15:17;;;;;;;20.52;13.60;;;6.00;97.00;;;;;;5073252;28;20888;-62
2023/12/13 04:17:43;;;;;;;22.20;12.80;;;5.90;97.00;;;;;;5055652;28;20607;-62
2023/12/13 04:20:10;;;;;;;22.83;14.20;;;6.00;97.10;;;;;;5055472;28;20041;-62
2023/12/13 04:22:38;;;;;;;19.40;13.23;;;6.00;97.00;;;;;;5055610;28;20028;-63
2023/12/13 04:25:06;;;;;;;22.35;12.85;;;6.00;97.10;;;;;;5075082;28;20024;-63
2023/12/13 04:27:33;;;;;;;22.15;13.93;;;6.00;97.00;;;;;;5093023;28;20405;-63
2023/12/13 04:29:58;;;;;;;20.45;13.85;;;6.00;97.00;;;;;;5092895;28;20081;-62
2023/12/13 04:32:29;;;;;;;17.00;11.35;;;5.90;97.00;;;;;;5074586;28;20036;-62
2023/12/13 04:34:57;;;;;;;16.25;11.85;;;5.90;97.00;;;;;;5055613;28;20039;-62
2023/12/13 04:37:25;;;;;;;14.23;11.13;;;5.90;97.00;;;;;;5073135;28;20028;-62
2023/12/13 04:39:52;;;;;;;13.88;11.30;;;5.90;97.10;;;;;;5055474;28;20032;-62
2023/12/13 04:42:17;;;;;;;19.85;12.23;;;5.90;97.00;;;;;;5072681;28;20033;-62
2023/12/13 04:44:43;;;;;;;16.45;11.98;;;5.90;97.00;;;;;;5072905;28;20115;-62
2023/12/13 04:47:10;;;;;;;17.25;12.30;;;5.90;97.00;;;;;;5055020;28;20410;-62
2023/12/13 04:49:39;;;;;;;17.35;11.35;;;5.90;97.00;;;;;;5072594;28;20489;-62
2023/12/13 04:52:05;;;;;;;16.08;10.82;;;5.90;97.00;;;;;;5072629;28;20045;-62
2023/12/13 04:54:38;;;;;;;14.13;10.77;;;5.90;97.00;;;;;;5072821;28;20020;-62
2023/12/13 04:57:09;;;;;;;13.50;10.27;;;5.90;97.00;;;;;;5055117;28;20024;-62
2023/12/13 04:59:38;;;;;;;13.77;11.20;;;5.80;97.00;;;;;;5072973;28;20037;-62
2023/12/13 05:02:05;;;;;;;11.93;10.65;;;5.90;97.00;;;;;;5072382;28;20044;-62
2023/12/13 05:04:33;;;;;;;15.63;11.10;;;5.90;97.00;;;;;;5072618;28;20113;-62
2023/12/13 05:07:03;;;;;;;15.32;10.57;;;5.80;96.90;;;;;;5072411;28;20077;-62
2023/12/13 05:09:31;;;;;;;12.32;9.95;;;5.90;97.10;;;;;;5073337;28;20031;-63
2023/12/13 05:11:57;;;;;;;13.65;11.10;;;5.80;97.00;;;;;;5038070;28;20024;-62
2023/12/13 05:14:25;;;;;;;12.93;11.02;;;5.80;97.00;;;;;;5074741;28;20035;-62
2023/12/13 05:16:51;;;;;;;14.77;10.95;;;5.90;97.10;;;;;;5076751;28;20020;-62
2023/12/13 05:19:18;;;;;;;15.50;11.25;;;5.80;97.10;;;;;;5076252;28;20094;-62
2023/12/13 05:21:45;;;;;;;14.52;10.13;;;5.80;97.00;;;;;;5058438;28;20066;-62
2023/12/13 05:24:10;;;;;;;14.75;11.20;;;5.90;97.10;;;;;;5071406;28;20036;-62
2023/12/13 05:26:38;;;;;;;16.40;10.90;;;5.80;97.00;;;;;;5095242;28;20039;-63
2023/12/13 05:29:06;;;;;;;14.90;10.80;;;5.80;97.00;;;;;;5075941;28;20028;-62
2023/12/13 05:31:33;;;;;;;13.88;10.73;;;5.80;97.00;;;;;;5076510;28;20009;-62
2023/12/13 05:34:00;;;;;;;14.02;10.75;;;5.80;97.10;;;;;;5075818;28;20021;-62
2023/12/13 05:36:29;;;;;;;14.95;10.63;;;5.80;97.00;;;;;;5057900;28;20357;-62
2023/12/13 05:38:56;;;;;;;14.98;10.13;;;5.80;97.10;;;;;;5095774;28;20013;-62
2023/12/13 05:41:24;;;;;;;15.80;9.75;;;5.80;97.10;;;;;;5089044;28;20028;-61
2023/12/13 05:43:51;;;;;;;15.35;9.82;;;5.80;97.10;;;;;;5075791;28;20048;-62
2023/12/13 05:46:18;;;;;;;16.45;10.32;;;5.80;97.00;;;;;;5075664;28;20070;-62
2023/12/13 05:48:47;;;;;;;12.15;9.57;;;5.80;97.00;;;;;;5069278;28;20044;-62
2023/12/13 05:51:15;;;;;;;16.20;9.90;;;5.80;97.10;;;;;;5075960;28;20028;-63
2023/12/13 05:53:43;;;;;;;12.38;9.70;;;5.80;97.10;;;;;;5040997;28;20339;-61
2023/12/13 05:56:11;;;;;;;13.88;9.45;;;5.80;97.10;;;;;;5075498;28;20021;-62
2023/12/13 05:58:40;;;;;;;12.48;9.20;;;5.80;97.10;;;;;;5076011;28;20037;-62
2023/12/13 06:01:09;;;;;;;13.00;10.25;;;5.80;97.10;;;;;;5075766;28;20043;-62
2023/12/13 06:03:36;;;;;;;14.40;9.25;;;5.90;97.20;;;;;;5075348;28;20108;-61
2023/12/13 06:06:13;;;;;;;12.80;9.02;;;5.80;97.00;;;;;;5075351;28;20564;-61
2023/12/13 06:08:42;;;;;;;11.50;9.18;;;5.80;97.10;;;;;;5057656;28;20082;-61
2023/12/13 06:11:28;;;;;;;12.00;9.23;;;5.90;97.10;;;;;;5059078;28;20048;-61
2023/12/13 06:13:55;;;;;;;12.52;8.77;;;5.80;97.10;;;;;;5075222;28;20048;-61
2023/12/13 06:16:23;;;;;;;11.55;9.10;;;5.80;97.10;;;;;;5075270;28;20028;-62
2023/12/13 06:18:50;;;;;;;11.57;9.85;;;5.80;97.00;;;;;;5075743;28;20080;-61
2023/12/13 06:21:17;;;;;;;12.32;8.93;;;5.80;97.20;;;;;;5074911;28;20035;-62
2023/12/13 06:23:44;;;;;;;13.35;9.23;;;5.80;97.10;;;;;;5083701;28;20202;-62
2023/12/13 06:26:11;;;;;;;11.48;8.55;;;5.80;97.10;;;;;;5087635;28;20077;-62
2023/12/13 06:28:38;;;;;;;11.75;9.48;;;5.80;97.10;;;;;;5057206;28;20507;-62
2023/12/13 06:31:06;;;;;;;12.55;9.63;;;5.80;97.10;;;;;;5074923;28;20031;-62
2023/12/13 06:33:35;;;;;;;13.50;9.77;;;5.80;97.10;;;;;;5090918;28;20026;-62
2023/12/13 06:36:04;;;;;;;13.55;9.57;;;5.80;97.10;;;;;;5095059;28;20087;-62
2023/12/13 06:38:31;;;;;;;26.75;16.23;;;5.70;97.10;;;;;;5091743;28;20033;-62
2023/12/13 06:40:57;;;;;;;15.18;11.52;;;5.70;97.00;;;;;;5074875;28;20075;-62
2023/12/13 06:43:25;;;;;;;16.52;11.88;;;5.70;97.10;;;;;;5074575;28;20029;-61
2023/12/13 06:45:52;;;;;;;24.30;20.13;;;5.70;97.10;;;;;;5074856;28;20073;-62
2023/12/13 06:48:19;;;;;;;53.05;44.00;;;5.70;97.10;;;;;;5056653;28;20501;-62
2023/12/13 06:50:49;;;;;;;21.65;17.50;;;5.70;97.10;;;;;;5074624;28;20098;-61
2023/12/13 06:53:18;;;;;;;23.33;19.27;;;5.70;97.10;;;;;;5057398;28;20032;-62
2023/12/13 06:55:44;;;;;;;17.67;14.50;;;5.70;97.10;;;;;;5074607;28;20032;-62
2023/12/13 06:58:11;;;;;;;15.93;12.13;;;5.60;97.10;;;;;;5057188;28;20166;-62
2023/12/13 07:00:37;;;;;;;15.27;12.43;;;5.70;97.10;;;;;;5074233;28;20567;-62
2023/12/13 07:03:04;;;;;;;17.05;14.70;;;5.60;97.00;;;;;;5074264;28;20043;-62
2023/12/13 07:05:31;;;;;;;15.07;12.65;;;5.60;97.10;;;;;;5073883;28;20452;-62
2023/12/13 07:07:57;;;;;;;13.65;10.00;;;5.70;97.10;;;;;;5073873;28;20414;-62
2023/12/13 07:10:26;;;;;;;13.43;10.23;;;5.70;97.10;;;;;;5074273;28;20090;-62
2023/12/13 07:13:02;;;;;;;12.40;9.85;;;5.60;97.10;;;;;;5074455;28;20044;-63
2023/12/13 07:15:29;;;;;;;14.55;10.75;;;5.70;97.10;;;;;;5073783;28;20036;-62
2023/12/13 07:17:57;;;;;;;12.85;9.68;;;5.60;97.10;;;;;;5073278;28;20037;-62
2023/12/13 07:20:23;;;;;;;12.95;10.02;;;5.60;97.00;;;;;;5055937;28;20020;-62
2023/12/13 07:22:50;;;;;;;13.27;10.55;;;5.60;97.10;;;;;;5075201;28;20100;-62
2023/12/13 07:25:18;;;;;;;12.82;9.68;;;5.50;97.00;;;;;;5087993;28;20064;-63
2023/12/13 07:27:49;;;;;;;14.75;10.65;;;5.50;97.10;;;;;;5056733;28;20043;-62
2023/12/13 07:30:16;;;;;;;12.13;9.80;;;5.60;97.00;;;;;;5074217;28;20557;-61
2023/12/13 07:32:48;;;;;;;13.00;9.85;;;5.50;97.10;;;;;;5055675;28;20066;-62
2023/12/13 07:35:14;;;;;;;14.50;10.63;;;5.60;97.10;;;;;;5073431;28;20036;-62
2023/12/13 07:37:40;;;;;;;14.07;12.13;;;5.50;97.00;;;;;;5073810;28;20028;-62
2023/12/13 07:40:09;;;;;;;13.23;9.93;;;5.50;97.00;;;;;;5073650;28;20051;-61
2023/12/13 07:42:36;;;;;;;13.48;10.07;;;5.50;97.00;;;;;;5073369;28;20059;-61
2023/12/13 07:45:03;;;;;;;15.10;9.38;;;5.50;97.00;;;;;;5073959;28;20398;-61
2023/12/13 07:47:29;;;;;;;14.55;10.10;;;5.50;97.00;;;;;;5073295;28;20089;-61
2023/12/13 07:49:57;;;;;;;14.02;9.63;;;5.50;97.00;;;;;;5073502;28;20024;-61
2023/12/13 07:52:27;;;;;;;12.80;10.00;;;5.50;97.00;;;;;;5073139;28;20035;-61
2023/12/13 07:54:55;;;;;;;12.85;9.93;;;5.50;97.00;;;;;;5073356;28;20029;-61
2023/12/13 07:57:22;;;;;;;13.75;10.20;;;5.50;96.90;;;;;;5073879;28;20028;-62
2023/12/13 07:59:50;;;;;;;13.95;10.50;;;5.50;97.00;;;;;;5073041;28;20029;-62
2023/12/13 08:02:20;;;;;;;13.27;10.48;;;5.50;97.00;;;;;;5072979;28;20032;-62
2023/12/13 08:04:46;;;;;;;13.18;9.98;;;5.50;97.00;;;;;;5073598;28;20032;-62
2023/12/13 08:07:13;;;;;;;15.20;10.02;;;5.50;96.90;;;;;;5055731;28;20059;-62
2023/12/13 08:09:44;;;;;;;17.45;9.80;;;5.40;97.00;;;;;;5073046;28;20446;-62
2023/12/13 08:12:11;;;;;;;14.95;9.98;;;5.40;97.00;;;;;;5073486;28;20121;-62
2023/12/13 08:14:38;;;;;;;13.43;9.68;;;5.50;97.00;;;;;;5072482;28;20026;-61
2023/12/13 08:17:10;;;;;;;13.38;9.35;;;5.50;97.00;;;;;;5072773;28;20052;-61
2023/12/13 08:19:39;;;;;;;10.63;8.48;;;5.50;97.00;;;;;;5091866;28;20102;-61
2023/12/13 08:22:05;;;;;;;14.98;9.55;;;5.50;97.00;;;;;;5075330;28;20043;-61
2023/12/13 08:24:33;;;;;;;13.30;9.02;;;5.50;97.00;;;;;;5082858;28;20041;-61
2023/12/13 08:27:09;;;;;;;11.27;9.57;;;5.50;96.90;;;;;;5072807;28;20024;-61
2023/12/13 08:29:36;;;;;;;22.55;15.65;;;5.50;97.00;;;;;;5072862;28;20396;-61
2023/12/13 08:32:06;;;;;;;27.38;21.08;;;5.50;97.00;;;;;;5072791;28;20060;-61
2023/12/13 08:34:35;;;;;;;12.68;10.20;;;5.60;96.90;;;;;;5072517;28;20029;-61
2023/12/13 08:37:03;;;;;;;12.27;9.70;;;5.60;96.90;;;;;;5072837;28;20040;-61
2023/12/13 08:39:32;;;;;;;14.82;9.63;;;5.60;96.90;;;;;;5072530;28;20024;-62
2023/12/13 08:42:03;;;;;;;12.63;9.27;;;5.70;96.90;;;;;;5072504;28;20083;-62
2023/12/13 08:44:29;;;;;;;11.18;9.18;;;5.70;96.90;;;;;;5055550;28;20075;-62
2023/12/13 08:46:57;;;;;;;15.55;9.88;;;5.70;96.90;;;;;;5072906;28;20092;-62
2023/12/13 08:49:25;;;;;;;12.55;9.40;;;5.70;96.90;;;;;;5074939;28;20028;-62
2023/12/13 08:51:52;;;;;;;13.57;8.73;;;5.70;96.90;;;;;;5059399;28;20381;-64
2023/12/13 08:54:18;;;;;;;10.90;8.88;;;5.70;96.80;;;;;;5076844;28;20024;-64
2023/12/13 08:56:44;;;;;;;10.98;8.85;;;5.70;96.80;;;;;;5076682;28;20017;-64
2023/12/13 08:59:11;;;;;;;13.32;10.38;;;5.70;96.80;;;;;;5077203;28;20403;-63
2023/12/13 09:01:39;;;;;;;11.27;8.98;;;5.70;96.70;;;;;;5076595;28;20024;-64
2023/12/13 09:04:07;;;;;;;13.40;8.52;;;5.70;96.70;;;;;;5076606;28;20118;-64
2023/12/13 09:06:37;;;;;;;9.93;8.45;;;5.70;96.80;;;;;;5076170;28;20045;-64
2023/12/13 09:09:07;;;;;;;;;;;5.70;96.80;;;;;;5076822;28;20107;-64
2023/12/13 09:11:38;;;;;;;11.45;8.20;;;5.60;96.60;;;;;;5077281;28;19946;-64
2023/12/13 09:14:07;;;;;;;;;;;5.70;96.70;;;;;;5077019;28;20376;-63
2023/12/13 09:16:34;;;;;;;14.07;8.30;;;5.60;96.60;;;;;;5076666;28;19912;-63
2023/12/13 09:19:02;;;;;;;12.25;9.68;;;5.60;96.60;;;;;;5076187;28;20028;-61
2023/12/13 09:21:29;;;;;;;17.00;10.68;;;5.60;96.70;;;;;;5076404;28;20376;-62
2023/12/13 09:23:56;;;;;;;13.68;8.95;;;5.60;96.50;;;;;;5065550;28;20059;-61
2023/12/13 09:26:24;;;;;;;12.18;9.20;;;5.60;96.60;;;;;;5075845;28;20039;-62
2023/12/13 09:28:55;;;;;;;11.93;8.43;;;5.60;96.50;;;;;;5076406;28;20413;-62
2023/12/13 09:31:23;;;;;;;11.73;9.45;;;5.60;96.50;;;;;;5075925;28;20031;-62
2023/12/13 09:33:57;;;;;;;12.10;8.90;;;5.60;96.60;;;;;;5076862;28;20111;-62
2023/12/13 09:36:23;;;;;;;20.00;8.25;;;5.60;96.40;;;;;;5076655;28;20358;-61
2023/12/13 09:38:53;;;;;;;10.25;8.02;;;5.60;96.50;;;;;;5058638;28;20047;-61
2023/12/13 09:41:33;;;;;;;10.10;7.43;;;5.60;96.50;;;;;;5075809;28;20039;-60
2023/12/13 09:44:00;;;;;;;9.50;7.25;;;5.60;96.50;;;;;;5077991;28;20036;-60
2023/12/13 09:46:29;;;;;;;9.07;7.30;;;5.50;96.40;;;;;;5078065;28;20028;-60
2023/12/13 09:48:56;;;;;;;9.43;7.53;;;5.50;96.40;;;;;;5078516;28;20039;-61
2023/12/13 09:51:30;;;;;;;8.93;6.55;;;5.50;96.40;;;;;;5058564;28;20040;-60
2023/12/13 09:54:02;;;;;;;9.93;6.85;;;5.50;96.30;;;;;;5075692;28;20078;-61
2023/12/13 09:56:29;;;;;;;7.82;6.20;;;5.50;96.30;;;;;;5057875;28;20368;-61
2023/12/13 09:58:56;;;;;;;9.00;6.32;;;5.50;96.40;;;;;;5075912;28;20036;-61
2023/12/13 10:01:23;;;;;;;11.10;7.38;;;5.50;96.40;;;;;;5075537;28;20410;-61
2023/12/13 10:03:52;;;;;;;16.77;11.38;;;5.50;96.30;;;;;;5075249;28;20032;-62
2023/12/13 10:06:18;;;;;;;7.82;6.25;;;5.50;96.20;;;;;;5075364;28;20417;-62
2023/12/13 10:08:54;;;;;;;13.07;11.88;;;5.50;96.30;;;;;;5057586;28;20144;-61
2023/12/13 10:11:21;;;;;;;10.50;8.50;;;5.50;96.20;;;;;;5058388;28;20107;-62
2023/12/13 10:13:47;;;;;;;8.07;7.28;;;5.50;96.20;;;;;;5075253;28;20458;-62
2023/12/13 10:16:23;;;;;;;11.90;7.22;;;5.50;96.20;;;;;;5074750;28;20039;-61
2023/12/13 10:18:51;;;;;;;11.02;6.97;;;5.50;96.10;;;;;;5075214;28;20108;-61
2023/12/13 10:21:20;;;;;;;11.10;6.15;;;5.60;96.20;;;;;;5075341;28;20123;-61
2023/12/13 10:23:46;;;;;;;8.98;5.95;;;5.50;96.10;;;;;;5075701;28;20043;-61
2023/12/13 10:26:14;;;;;;;10.27;7.00;;;5.60;96.00;;;;;;5075151;28;20028;-61
2023/12/13 10:28:43;;;;;;;8.60;5.80;;;5.50;96.00;;;;;;5075484;28;20035;-61
2023/12/13 10:31:11;;;;;;;9.70;6.13;;;5.50;95.90;;;;;;5084412;28;20281;-61
2023/12/13 10:33:39;;;;;;;9.63;6.55;;;5.50;95.90;;;;;;5095417;28;20020;-62
2023/12/13 10:36:09;;;;;;;9.10;7.57;;;5.50;95.90;;;;;;5095093;28;20091;-61
2023/12/13 10:38:41;;;;;;;8.35;6.75;;;5.50;95.80;;;;;;5077549;28;20122;-62
2023/12/13 10:41:09;;;;;;;12.20;7.22;;;5.50;95.80;;;;;;5060193;28;20625;-61
2023/12/13 10:43:41;;;;;;;9.25;7.00;;;5.50;95.70;;;;;;5044028;28;20032;-62
2023/12/13 10:46:14;;;;;;;9.65;7.15;;;5.40;95.70;;;;;;5062412;28;20075;-62
2023/12/13 10:48:41;;;;;;;10.63;7.70;;;5.40;95.70;;;;;;5074768;28;20453;-61
2023/12/13 10:51:07;;;;;;;11.93;7.65;;;5.50;95.70;;;;;;5056948;28;20036;-61
2023/12/13 10:53:34;;;;;;;12.95;7.55;;;5.40;95.70;;;;;;5075040;28;20095;-61
2023/12/13 10:56:04;;;;;;;10.07;6.78;;;5.50;95.70;;;;;;5074511;28;20571;-60
2023/12/13 10:58:34;;;;;;;12.73;6.80;;;5.50;95.60;;;;;;5074642;28;20370;-61
2023/12/13 11:01:13;;;;;;;9.87;6.73;;;5.40;95.50;;;;;;5040432;28;20029;-61
2023/12/13 11:04:02;;;;;;;11.05;6.80;;;5.40;95.60;;;;;;5056601;28;20695;-60
2023/12/13 11:06:28;;;;;;;9.75;6.85;;;5.40;95.60;;;;;;5072020;28;20063;-61
2023/12/13 11:08:54;;;;;;;9.82;6.57;;;5.50;95.70;;;;;;5074585;28;20379;-60
2023/12/13 11:11:29;;;;;;;9.05;6.30;;;5.50;95.60;;;;;;5055500;28;20032;-60
2023/12/13 11:13:56;;;;;;;12.57;7.38;;;5.50;95.50;;;;;;5057299;28;20028;-60
2023/12/13 11:16:26;;;;;;;12.25;7.35;;;5.40;95.60;;;;;;5074055;28;20024;-59
2023/12/13 11:19:05;;;;;;;13.68;6.57;;;5.40;95.50;;;;;;5056905;28;20529;-60
2023/12/13 11:21:36;;;;;;;11.05;7.95;;;5.50;95.60;;;;;;5074433;28;20050;-59
2023/12/13 11:24:26;;;;;;;10.25;6.82;;;5.50;95.60;;;;;;5067911;28;20085;-58
2023/12/13 11:26:59;;;;;;;12.10;6.80;;;5.50;95.70;;;;;;5074909;28;20033;-55
2023/12/13 11:29:29;;;;;;;10.15;7.50;;;5.50;95.60;;;;;;5073718;28;20024;-57
2023/12/13 11:32:04;;;;;;;10.00;6.53;;;5.40;95.50;;;;;;5073573;28;20028;-57
2023/12/13 11:34:47;;;;;;;13.95;7.35;;;5.50;95.50;;;;;;5074111;28;20029;-57
2023/12/13 11:37:22;;;;;;;11.45;7.35;;;5.50;95.40;;;;;;5073653;28;20028;-56
2023/12/13 11:39:50;;;;;;;13.35;7.57;;;5.40;95.40;;;;;;5056335;28;20110;-53
2023/12/13 11:42:17;;;;;;;11.70;7.07;;;5.50;95.30;;;;;;5073656;28;20067;-52
2023/12/13 11:44:45;;;;;;;12.55;7.80;;;5.50;95.40;;;;;;5074148;28;20028;-56
2023/12/13 11:47:13;;;;;;;11.05;7.43;;;5.50;95.50;;;;;;5039195;28;20029;-53
2023/12/13 11:49:40;;;;;;;17.38;12.90;;;5.50;95.20;;;;;;5055816;28;20036;-53
2023/12/13 11:52:07;;;;;;;12.85;9.63;;;5.50;95.30;;;;;;5093397;28;20016;-54
2023/12/13 11:54:38;;;;;;;13.55;8.50;;;5.50;95.20;;;;;;5093814;28;20327;-53
2023/12/13 11:57:18;;;;;;;12.30;7.45;;;5.50;95.20;;;;;;5067641;28;20094;-52
2023/12/13 11:59:48;;;;;;;10.93;8.45;;;5.40;95.10;;;;;;5073563;28;20381;-52
2023/12/13 12:02:16;;;;;;;11.90;8.30;;;5.50;95.20;;;;;;5073038;28;20107;-53
2023/12/13 12:04:44;;;;;;;11.70;7.25;;;5.40;95.10;;;;;;5056118;28;20032;-49
2023/12/13 12:07:18;;;;;;;13.45;7.57;;;5.40;95.10;;;;;;5072751;28;20527;-51
2023/12/13 12:09:53;;;;;;;11.10;8.25;;;5.50;95.20;;;;;;5072981;28;20331;-50
2023/12/13 12:12:19;;;;;;;12.55;7.88;;;5.40;95.10;;;;;;5055709;28;20101;-49
2023/12/13 12:14:51;;;;;;;16.50;14.50;;;5.50;95.20;;;;;;5055740;28;20020;-49
2023/12/13 12:17:20;;;;;;;10.80;7.95;;;5.50;95.20;;;;;;5056111;28;20036;-51
2023/12/13 12:20:03;;;;;;;11.43;7.72;;;5.50;95.10;;;;;;5055758;28;20044;-49
2023/12/13 12:22:40;;;;;;;10.85;7.97;;;5.40;95.00;;;;;;5072967;28;20094;-48
2023/12/13 12:25:08;;;;;;;14.20;7.38;;;5.50;95.00;;;;;;5072907;28;20035;-48
2023/12/13 12:27:48;;;;;;;10.45;7.07;;;5.40;95.00;;;;;;5073012;28;20036;-47
2023/12/13 12:30:17;;;;;;;11.57;6.78;;;5.40;94.90;;;;;;5056012;28;20116;-48
2023/12/13 12:32:44;;;;;;;12.70;6.85;;;5.40;94.90;;;;;;5072839;28;20032;-50
2023/12/13 12:35:09;;;;;;;10.60;7.03;;;5.40;95.00;;;;;;5059196;28;20029;-47
2023/12/13 12:37:35;;;;;;;9.18;6.35;;;5.40;94.90;;;;;;5072728;28;20043;-48
2023/12/13 12:40:06;;;;;;;9.95;6.50;;;5.40;94.90;;;;;;5073172;28;20036;-47
2023/12/13 12:42:33;;;;;;;8.98;6.13;;;5.40;94.80;;;;;;5038874;28;20033;-48
2023/12/13 12:45:00;;;;;;;8.52;5.72;;;5.40;94.90;;;;;;5072636;28;20052;-48
2023/12/13 12:47:27;;;;;;;11.38;6.07;;;5.40;94.90;;;;;;5072767;28;20056;-47
2023/12/13 12:49:55;;;;;;;8.40;5.35;;;5.40;94.80;;;;;;5072670;28;20052;-47
2023/12/13 12:52:22;;;;;;;9.88;5.68;;;5.30;94.80;;;;;;5072720;28;20043;-49